Anchorage, AK

1:35 PM AKDT on September 04, 2015 (GMT -0800)
Westchester Lagoon | | Change Station
CLOSE
Current Station
Personal Weather Station
Location: Anchorage, AK
Elevation: 36 ft
Nearby Weather Stations

Elev 36 ft 61.21 °N, 149.92 °W | Updated 31 seconds ago

Overcast
Overcast
53.9 °F
Feels Like 53.9 °F
N
0.0
Wind Variable Wind from NW
Gusts 0.0 mph

Today
High -- | Low -- °F
--% Chance of Precip.
Yesterday
High -- | Low -- °F
Precip. -- in
6:58 AM 8:56 PM
Waning Gibbous, 56% visible
Pressure 29.81 in
Visibility 10.0 miles
Clouds Few 500 ft
Mostly Cloudy 4500 ft
Overcast 5000 ft
Dew Point 51 °F
Humidity 89%
Rainfall 0.07 in
Snow Depth Not available.
UV 1 out of 12
Pollen Not available.
Air Quality Not available.
Flu Activity Not available.
METAR PAMR 042053Z 36003KT 10SM FEW005 BKN045 OVC050 12/09 A2981 RMK AO2 SLP094 6//// T01220089 51002
Pressure 29.81 in
Visibility 10.0 miles
Clouds Few 500 ft
Mostly Cloudy 4500 ft
Overcast 5000 ft
Dew Point 51 °F
Humidity 89%
Rainfall 0.07 in
Snow Depth Not available.
UV 1 out of 12
Pollen Not available.
Air Quality Not available.
Flu Activity Not available.
METAR PAMR 042053Z 36003KT 10SM FEW005 BKN045 OVC050 12/09 A2981 RMK AO2 SLP094 6//// T01220089 51002

10-Day Weather Forecast

×

Almanac

Astronomy

Sep. 04, 2015 Rise Set
Actual Time
Civil Twilight
Nautical Twilight
Astronomical Twilight
Moon
Length of Visible Light
Length of Day
Tomorrow will be .
, % of the Moon is Illuminated

Today's Extremes

State Highs State Lows

Community

WunderPhotos

Upload Photos

1,852,297 photos uploaded!

WunderBlogs® & News

Nearby

Air Quality

  Air Quality AQ Index Pollutant
Not available.

Snow Depth

Station Depth Elevation

Earthquake Activity

City Distance Mag. Time & Date
Minimum magnitude displayed is 2.5.

Coastal Water Temperatures

Place Temperature

Stations

Nearby Weather Stations

Station Location Temp. Windchill Dew Point Humidity Wind Precip. Elev Updated Type